SLET/SRZ METAR and TAF weather

Enter ICAO airport designator
Station Type Date Time Source
SLET METAR 2022/08/13 13:00 UTC NOAA

SLET 131300Z 30009KT 9999 FEW020 24/18 Q1013


Station Type Date Time Source
SLET Decoded METAR 2022/08/13 13:00 UTC NOAA

Santa Cruz / El Trompillo, Bolivia (SLET) 17-48S 063-11W 414M
Aug 13, 2022 - 09:00 AM EDT / 2022.08.13 1300 UTC
Wind: from the WNW (300 degrees) at 10 MPH (9 KT):0
Visibility: greater than 7 mile(s):0
Sky conditions: mostly clear
Temperature: 75 F (24 C)
Dew Point: 64 F (18 C)
Relative Humidity: 69%
Pressure (altimeter): 29.91 in. Hg (1013 hPa)
ob: SLET 131300Z 30009KT 9999 FEW020 24/18 Q1013
cycle: 13

Station Type Date Time Source
SLET TAF 2022/08/13 12:54 UTC NOAA

TAF TAF SLET 131000Z 1312/1412 34012KT 9999 NSC TX31/1320Z TN20/1410Z
BECMG 1315/1318 34020G30KT FEW023
BECMG 1323/1402 34007KT NSC

Example: see airport list